sensor_id;sensor_type;location;lat;lon;timestamp;temperature;humidity
70246;SHT30;57637;49.272;8.590;2022-10-23T00:00:36;12.85;93.47
70246;SHT30;57637;49.272;8.590;2022-10-23T00:03:02;12.91;93.39
70246;SHT30;57637;49.272;8.590;2022-10-23T00:05:28;12.88;93.42
70246;SHT30;57637;49.272;8.590;2022-10-23T00:07:55;12.87;93.35
70246;SHT30;57637;49.272;8.590;2022-10-23T00:10:23;12.84;93.45
70246;SHT30;57637;49.272;8.590;2022-10-23T00:12:50;12.84;93.57
70246;SHT30;57637;49.272;8.590;2022-10-23T00:15:18;12.88;93.32
70246;SHT30;57637;49.272;8.590;2022-10-23T00:17:45;12.85;93.44
70246;SHT30;57637;49.272;8.590;2022-10-23T00:20:10;12.91;93.29
70246;SHT30;57637;49.272;8.590;2022-10-23T00:22:37;12.88;93.31
70246;SHT30;57637;49.272;8.590;2022-10-23T00:25:04;12.89;93.30
70246;SHT30;57637;49.272;8.590;2022-10-23T00:27:30;12.88;93.26
70246;SHT30;57637;49.272;8.590;2022-10-23T00:29:56;12.85;93.41
70246;SHT30;57637;49.272;8.590;2022-10-23T00:32:21;12.88;93.28
70246;SHT30;57637;49.272;8.590;2022-10-23T00:34:47;12.89;93.13
70246;SHT30;57637;49.272;8.590;2022-10-23T00:37:12;12.93;93.10
70246;SHT30;57637;49.272;8.590;2022-10-23T00:39:37;12.91;93.09
70246;SHT30;57637;49.272;8.590;2022-10-23T00:42:03;12.93;93.04
70246;SHT30;57637;49.272;8.590;2022-10-23T00:46:53;12.93;93.02
70246;SHT30;57637;49.272;8.590;2022-10-23T00:49:19;12.89;93.05
70246;SHT30;57637;49.272;8.590;2022-10-23T00:51:47;12.92;93.09
70246;SHT30;57637;49.272;8.590;2022-10-23T00:54:15;12.92;92.92
70246;SHT30;57637;49.272;8.590;2022-10-23T00:56:43;12.91;92.89
70246;SHT30;57637;49.272;8.590;2022-10-23T00:59:10;12.92;92.91
70246;SHT30;57637;49.272;8.590;2022-10-23T01:01:36;12.98;92.88
70246;SHT30;57637;49.272;8.590;2022-10-23T01:04:02;12.96;92.81
70246;SHT30;57637;49.272;8.590;2022-10-23T01:06:40;12.87;93.03
70246;SHT30;57637;49.272;8.590;2022-10-23T01:09:17;12.87;93.08
70246;SHT30;57637;49.272;8.590;2022-10-23T01:11:58;12.87;93.11
70246;SHT30;57637;49.272;8.590;2022-10-23T01:19:55;12.91;93.21
70246;SHT30;57637;49.272;8.590;2022-10-23T01:28:15;12.85;93.24
70246;SHT30;57637;49.272;8.590;2022-10-23T01:30:56;12.81;93.34
70246;SHT30;57637;49.272;8.590;2022-10-23T01:33:26;12.78;93.45
70246;SHT30;57637;49.272;8.590;2022-10-23T01:35:59;12.75;93.57
70246;SHT30;57637;49.272;8.590;2022-10-23T01:38:31;12.69;93.71
70246;SHT30;57637;49.272;8.590;2022-10-23T01:41:14;12.68;93.77
70246;SHT30;57637;49.272;8.590;2022-10-23T01:43:45;12.68;93.84
70246;SHT30;57637;49.272;8.590;2022-10-23T01:46:18;12.69;93.84
70246;SHT30;57637;49.272;8.590;2022-10-23T01:48:45;12.68;93.91
70246;SHT30;57637;49.272;8.590;2022-10-23T01:51:15;12.69;93.82
70246;SHT30;57637;49.272;8.590;2022-10-23T01:53:42;12.68;93.85
70246;SHT30;57637;49.272;8.590;2022-10-23T01:56:12;12.67;93.90
70246;SHT30;57637;49.272;8.590;2022-10-23T01:58:42;12.68;93.88
70246;SHT30;57637;49.272;8.590;2022-10-23T02:01:11;12.65;93.89
70246;SHT30;57637;49.272;8.590;2022-10-23T02:03:38;12.64;94.02
70246;SHT30;57637;49.272;8.590;2022-10-23T02:06:07;12.62;93.94
70246;SHT30;57637;49.272;8.590;2022-10-23T02:08:32;12.65;93.92
70246;SHT30;57637;49.272;8.590;2022-10-23T02:13:44;12.64;93.89
70246;SHT30;57637;49.272;8.590;2022-10-23T02:22:29;12.71;93.79
70246;SHT30;57637;49.272;8.590;2022-10-23T02:25:04;12.69;93.78
70246;SHT30;57637;49.272;8.590;2022-10-23T02:27:38;12.71;93.61
70246;SHT30;57637;49.272;8.590;2022-10-23T02:30:07;12.71;93.80
70246;SHT30;57637;49.272;8.590;2022-10-23T02:32:39;12.65;93.92
70246;SHT30;57637;49.272;8.590;2022-10-23T02:35:08;12.60;94.05
70246;SHT30;57637;49.272;8.590;2022-10-23T02:37:35;12.62;94.11
70246;SHT30;57637;49.272;8.590;2022-10-23T02:40:00;12.67;93.91
70246;SHT30;57637;49.272;8.590;2022-10-23T02:45:53;12.65;93.87
70246;SHT30;57637;49.272;8.590;2022-10-23T02:48:49;12.71;93.67
70246;SHT30;57637;49.272;8.590;2022-10-23T02:52:26;12.67;93.68
70246;SHT30;57637;49.272;8.590;2022-10-23T02:54:31;12.69;93.52
70246;SHT30;57637;49.272;8.590;2022-10-23T02:57:32;12.69;93.53
70246;SHT30;57637;49.272;8.590;2022-10-23T03:02:40;12.64;93.60
70246;SHT30;57637;49.272;8.590;2022-10-23T03:05:11;12.67;93.58
70246;SHT30;57637;49.272;8.590;2022-10-23T03:07:40;12.67;93.62
70246;SHT30;57637;49.272;8.590;2022-10-23T03:10:06;12.64;93.62
70246;SHT30;57637;49.272;8.590;2022-10-23T03:12:33;12.62;93.58
70246;SHT30;57637;49.272;8.590;2022-10-23T03:14:58;12.62;93.63
70246;SHT30;57637;49.272;8.590;2022-10-23T03:17:24;12.62;93.52
70246;SHT30;57637;49.272;8.590;2022-10-23T03:19:49;12.62;93.39
70246;SHT30;57637;49.272;8.590;2022-10-23T03:22:15;12.61;93.52
70246;SHT30;57637;49.272;8.590;2022-10-23T03:24:40;12.62;93.45
70246;SHT30;57637;49.272;8.590;2022-10-23T03:27:06;12.62;93.33
70246;SHT30;57637;49.272;8.590;2022-10-23T03:29:31;12.57;93.44
70246;SHT30;57637;49.272;8.590;2022-10-23T03:31:57;12.57;93.56
70246;SHT30;57637;49.272;8.590;2022-10-23T03:34:22;12.54;93.69
70246;SHT30;57637;49.272;8.590;2022-10-23T03:36:48;12.51;93.81
70246;SHT30;57637;49.272;8.590;2022-10-23T03:39:13;12.47;93.78
70246;SHT30;57637;49.272;8.590;2022-10-23T03:41:38;12.45;93.72
70246;SHT30;57637;49.272;8.590;2022-10-23T03:44:04;12.44;93.82
70246;SHT30;57637;49.272;8.590;2022-10-23T03:46:29;12.42;93.82
70246;SHT30;57637;49.272;8.590;2022-10-23T03:48:55;12.40;93.96
70246;SHT30;57637;49.272;8.590;2022-10-23T03:51:22;12.38;93.96
70246;SHT30;57637;49.272;8.590;2022-10-23T03:53:48;12.38;94.09
70246;SHT30;57637;49.272;8.590;2022-10-23T03:56:13;12.36;94.20
70246;SHT30;57637;49.272;8.590;2022-10-23T03:58:38;12.38;94.23
70246;SHT30;57637;49.272;8.590;2022-10-23T04:01:04;12.33;94.37
70246;SHT30;57637;49.272;8.590;2022-10-23T04:03:29;12.30;94.44
70246;SHT30;57637;49.272;8.590;2022-10-23T04:05:54;12.24;94.44
70246;SHT30;57637;49.272;8.590;2022-10-23T04:08:20;12.21;94.49
70246;SHT30;57637;49.272;8.590;2022-10-23T04:10:45;12.19;94.68
70246;SHT30;57637;49.272;8.590;2022-10-23T04:13:11;12.16;94.87
70246;SHT30;57637;49.272;8.590;2022-10-23T04:15:36;12.12;94.87
70246;SHT30;57637;49.272;8.590;2022-10-23T04:18:02;12.09;94.91
70246;SHT30;57637;49.272;8.590;2022-10-23T04:20:28;12.04;94.87
70246;SHT30;57637;49.272;8.590;2022-10-23T04:22:53;12.06;94.94
70246;SHT30;57637;49.272;8.590;2022-10-23T04:25:18;12.03;94.89
70246;SHT30;57637;49.272;8.590;2022-10-23T04:27:44;12.03;94.95
70246;SHT30;57637;49.272;8.590;2022-10-23T04:30:10;12.03;94.99
70246;SHT30;57637;49.272;8.590;2022-10-23T04:32:35;12.04;94.92
70246;SHT30;57637;49.272;8.590;2022-10-23T04:35:01;12.04;94.81
70246;SHT30;57637;49.272;8.590;2022-10-23T04:37:26;12.04;94.89
70246;SHT30;57637;49.272;8.590;2022-10-23T04:39:52;12.09;94.81
70246;SHT30;57637;49.272;8.590;2022-10-23T04:42:17;12.09;94.66
70246;SHT30;57637;49.272;8.590;2022-10-23T04:44:43;12.10;94.59
70246;SHT30;57637;49.272;8.590;2022-10-23T04:47:14;12.12;94.52
70246;SHT30;57637;49.272;8.590;2022-10-23T04:49:41;12.12;94.51
70246;SHT30;57637;49.272;8.590;2022-10-23T04:52:07;12.13;94.40
70246;SHT30;57637;49.272;8.590;2022-10-23T04:54:36;12.14;94.40
70246;SHT30;57637;49.272;8.590;2022-10-23T04:57:01;12.16;94.28
70246;SHT30;57637;49.272;8.590;2022-10-23T04:59:27;12.17;94.34
70246;SHT30;57637;49.272;8.590;2022-10-23T05:01:52;12.20;94.15
70246;SHT30;57637;49.272;8.590;2022-10-23T05:04:17;12.26;94.07
70246;SHT30;57637;49.272;8.590;2022-10-23T05:06:43;12.27;93.80
70246;SHT30;57637;49.272;8.590;2022-10-23T05:09:08;12.28;93.79
70246;SHT30;57637;49.272;8.590;2022-10-23T05:11:33;12.33;93.65
70246;SHT30;57637;49.272;8.590;2022-10-23T05:13:59;12.33;93.62
70246;SHT30;57637;49.272;8.590;2022-10-23T05:19:20;12.34;93.58
70246;SHT30;57637;49.272;8.590;2022-10-23T05:21:48;12.33;93.50
70246;SHT30;57637;49.272;8.590;2022-10-23T05:24:19;12.34;93.57
70246;SHT30;57637;49.272;8.590;2022-10-23T05:26:45;12.33;93.67
70246;SHT30;57637;49.272;8.590;2022-10-23T05:29:10;12.36;93.64
70246;SHT30;57637;49.272;8.590;2022-10-23T05:31:35;12.34;93.64
70246;SHT30;57637;49.272;8.590;2022-10-23T05:34:01;12.36;93.61
70246;SHT30;57637;49.272;8.590;2022-10-23T05:36:26;12.37;93.54
70246;SHT30;57637;49.272;8.590;2022-10-23T05:38:52;12.38;93.58
70246;SHT30;57637;49.272;8.590;2022-10-23T05:41:18;12.37;93.63
70246;SHT30;57637;49.272;8.590;2022-10-23T05:43:44;12.41;93.58
70246;SHT30;57637;49.272;8.590;2022-10-23T05:46:10;12.41;93.50
70246;SHT30;57637;49.272;8.590;2022-10-23T05:48:36;12.44;93.47
70246;SHT30;57637;49.272;8.590;2022-10-23T05:51:05;12.42;93.49
70246;SHT30;57637;49.272;8.590;2022-10-23T05:53:33;12.45;93.26
70246;SHT30;57637;49.272;8.590;2022-10-23T05:56:17;12.47;93.00
70246;SHT30;57637;49.272;8.590;2022-10-23T05:58:43;12.50;92.99
70246;SHT30;57637;49.272;8.590;2022-10-23T06:01:10;12.50;92.89
70246;SHT30;57637;49.272;8.590;2022-10-23T06:03:37;12.50;92.89
70246;SHT30;57637;49.272;8.590;2022-10-23T06:06:03;12.51;92.77
70246;SHT30;57637;49.272;8.590;2022-10-23T06:08:29;12.48;92.66
70246;SHT30;57637;49.272;8.590;2022-10-23T06:10:56;12.50;92.70
70246;SHT30;57637;49.272;8.590;2022-10-23T06:13:21;12.44;92.80
70246;SHT30;57637;49.272;8.590;2022-10-23T06:15:46;12.40;92.85
70246;SHT30;57637;49.272;8.590;2022-10-23T06:18:12;12.42;92.71
70246;SHT30;57637;49.272;8.590;2022-10-23T06:20:38;12.40;92.79
70246;SHT30;57637;49.272;8.590;2022-10-23T06:23:03;12.40;92.80
70246;SHT30;57637;49.272;8.590;2022-10-23T06:25:34;12.38;92.80
70246;SHT30;57637;49.272;8.590;2022-10-23T06:28:59;12.38;92.72
70246;SHT30;57637;49.272;8.590;2022-10-23T06:32:22;12.42;92.58
70246;SHT30;57637;49.272;8.590;2022-10-23T06:35:11;12.44;92.61
70246;SHT30;57637;49.272;8.590;2022-10-23T06:55:41;12.58;91.93
70246;SHT30;57637;49.272;8.590;2022-10-23T06:58:07;12.62;91.84
70246;SHT30;57637;49.272;8.590;2022-10-23T07:00:39;12.67;91.75
70246;SHT30;57637;49.272;8.590;2022-10-23T07:03:05;12.68;91.64
70246;SHT30;57637;49.272;8.590;2022-10-23T07:05:32;12.75;91.53
70246;SHT30;57637;49.272;8.590;2022-10-23T07:07:59;12.74;91.24
70246;SHT30;57637;49.272;8.590;2022-10-23T07:10:25;12.85;92.02
70246;SHT30;57637;49.272;8.590;2022-10-23T07:12:51;12.85;91.05
70246;SHT30;57637;49.272;8.590;2022-10-23T07:15:25;12.84;91.01
70246;SHT30;57637;49.272;8.590;2022-10-23T07:17:51;12.89;91.10
70246;SHT30;57637;49.272;8.590;2022-10-23T07:20:17;13.01;90.87
70246;SHT30;57637;49.272;8.590;2022-10-23T07:22:42;13.02;90.21
70246;SHT30;57637;49.272;8.590;2022-10-23T07:25:08;13.11;90.16
70246;SHT30;57637;49.272;8.590;2022-10-23T07:27:36;13.15;90.20
70246;SHT30;57637;49.272;8.590;2022-10-23T07:30:03;13.19;90.00
70246;SHT30;57637;49.272;8.590;2022-10-23T07:32:31;13.24;90.15
70246;SHT30;57637;49.272;8.590;2022-10-23T07:34:57;13.23;89.75
70246;SHT30;57637;49.272;8.590;2022-10-23T07:37:22;13.30;89.91
70246;SHT30;57637;49.272;8.590;2022-10-23T07:39:48;13.29;89.69
70246;SHT30;57637;49.272;8.590;2022-10-23T07:42:13;13.29;89.94
70246;SHT30;57637;49.272;8.590;2022-10-23T07:44:38;13.32;89.96
70246;SHT30;57637;49.272;8.590;2022-10-23T07:47:04;13.42;89.81
70246;SHT30;57637;49.272;8.590;2022-10-23T07:49:29;13.63;89.57
70246;SHT30;57637;49.272;8.590;2022-10-23T07:51:54;13.57;88.54
70246;SHT30;57637;49.272;8.590;2022-10-23T07:54:22;13.62;88.71
70246;SHT30;57637;49.272;8.590;2022-10-23T07:56:48;13.60;88.38
70246;SHT30;57637;49.272;8.590;2022-10-23T07:59:13;13.73;88.39
70246;SHT30;57637;49.272;8.590;2022-10-23T08:01:39;13.77;88.02
70246;SHT30;57637;49.272;8.590;2022-10-23T08:04:06;13.85;88.13
70246;SHT30;57637;49.272;8.590;2022-10-23T08:06:32;14.00;88.02
70246;SHT30;57637;49.272;8.590;2022-10-23T08:09:00;14.24;87.02
70246;SHT30;57637;49.272;8.590;2022-10-23T08:11:27;14.25;86.59
70246;SHT30;57637;49.272;8.590;2022-10-23T08:13:59;14.39;86.53
70246;SHT30;57637;49.272;8.590;2022-10-23T08:16:26;14.48;86.14
70246;SHT30;57637;49.272;8.590;2022-10-23T08:18:52;14.73;85.46
70246;SHT30;57637;49.272;8.590;2022-10-23T08:21:17;14.75;85.38
70246;SHT30;57637;49.272;8.590;2022-10-23T08:23:43;14.95;84.51
70246;SHT30;57637;49.272;8.590;2022-10-23T08:26:09;15.07;84.37
70246;SHT30;57637;49.272;8.590;2022-10-23T08:28:35;15.14;83.92
70246;SHT30;57637;49.272;8.590;2022-10-23T08:31:08;15.47;82.87
70246;SHT30;57637;49.272;8.590;2022-10-23T08:33:38;15.47;82.20
70246;SHT30;57637;49.272;8.590;2022-10-23T08:36:04;15.40;82.53
70246;SHT30;57637;49.272;8.590;2022-10-23T08:38:38;15.50;83.11
70246;SHT30;57637;49.272;8.590;2022-10-23T08:41:03;15.67;82.62
70246;SHT30;57637;49.272;8.590;2022-10-23T08:46:11;15.87;81.40
70246;SHT30;57637;49.272;8.590;2022-10-23T08:48:42;16.15;81.07
70246;SHT30;57637;49.272;8.590;2022-10-23T08:51:24;16.51;80.89
70246;SHT30;57637;49.272;8.590;2022-10-23T08:57:15;16.72;78.60
70246;SHT30;57637;49.272;8.590;2022-10-23T08:59:45;16.87;78.64
70246;SHT30;57637;49.272;8.590;2022-10-23T09:08:03;16.90;78.94
70246;SHT30;57637;49.272;8.590;2022-10-23T09:11:01;17.24;77.37
70246;SHT30;57637;49.272;8.590;2022-10-23T09:19:18;17.64;76.76
70246;SHT30;57637;49.272;8.590;2022-10-23T09:21:47;17.71;76.61
70246;SHT30;57637;49.272;8.590;2022-10-23T09:24:14;18.25;75.41
70246;SHT30;57637;49.272;8.590;2022-10-23T09:26:46;18.36;75.89
70246;SHT30;57637;49.272;8.590;2022-10-23T09:29:35;18.68;74.15
70246;SHT30;57637;49.272;8.590;2022-10-23T09:32:10;19.12;73.56
70246;SHT30;57637;49.272;8.590;2022-10-23T09:34:35;19.05;72.32
70246;SHT30;57637;49.272;8.590;2022-10-23T09:37:02;18.87;72.10
70246;SHT30;57637;49.272;8.590;2022-10-23T09:39:41;19.08;72.14
70246;SHT30;57637;49.272;8.590;2022-10-23T09:42:48;19.59;71.11
70246;SHT30;57637;49.272;8.590;2022-10-23T09:44:58;19.92;71.04
70246;SHT30;57637;49.272;8.590;2022-10-23T09:47:24;19.97;70.01
70246;SHT30;57637;49.272;8.590;2022-10-23T09:49:51;19.90;69.72
70246;SHT30;57637;49.272;8.590;2022-10-23T09:52:28;19.46;71.42
70246;SHT30;57637;49.272;8.590;2022-10-23T09:54:59;19.69;70.39
70246;SHT30;57637;49.272;8.590;2022-10-23T10:00:02;19.94;70.35
70246;SHT30;57637;49.272;8.590;2022-10-23T10:02:39;19.63;71.04
70246;SHT30;57637;49.272;8.590;2022-10-23T10:10:56;19.39;71.28
70246;SHT30;57637;49.272;8.590;2022-10-23T10:21:39;19.42;72.04
70246;SHT30;57637;49.272;8.590;2022-10-23T10:29:39;19.56;71.62
70246;SHT30;57637;49.272;8.590;2022-10-23T10:37:53;19.79;69.31
70246;SHT30;57637;49.272;8.590;2022-10-23T10:50:59;20.12;67.60
70246;SHT30;57637;49.272;8.590;2022-10-23T10:56:16;20.35;68.08
70246;SHT30;57637;49.272;8.590;2022-10-23T10:58:49;20.64;67.74
70246;SHT30;57637;49.272;8.590;2022-10-23T11:03:54;21.10;66.20
70246;SHT30;57637;49.272;8.590;2022-10-23T11:06:26;21.03;67.25
70246;SHT30;57637;49.272;8.590;2022-10-23T11:08:56;21.16;67.26
70246;SHT30;57637;49.272;8.590;2022-10-23T11:11:27;20.88;67.28
70246;SHT30;57637;49.272;8.590;2022-10-23T11:13:58;20.71;67.31
70246;SHT30;57637;49.272;8.590;2022-10-23T11:16:35;20.49;68.32
70246;SHT30;57637;49.272;8.590;2022-10-23T11:21:45;20.71;68.54
70246;SHT30;57637;49.272;8.590;2022-10-23T11:24:21;21.03;67.65
70246;SHT30;57637;49.272;8.590;2022-10-23T11:27:22;20.49;68.21
70246;SHT30;57637;49.272;8.590;2022-10-23T11:41:02;20.09;71.72
70246;SHT30;57637;49.272;8.590;2022-10-23T11:43:31;20.25;70.52
70246;SHT30;57637;49.272;8.590;2022-10-23T11:46:10;20.31;71.03
70246;SHT30;57637;49.272;8.590;2022-10-23T11:48:55;20.59;69.94
70246;SHT30;57637;49.272;8.590;2022-10-23T11:56:34;21.06;67.89
70246;SHT30;57637;49.272;8.590;2022-10-23T11:59:17;21.19;67.90
70246;SHT30;57637;49.272;8.590;2022-10-23T12:01:47;20.91;68.57
70246;SHT30;57637;49.272;8.590;2022-10-23T12:04:17;20.92;67.69
70246;SHT30;57637;49.272;8.590;2022-10-23T12:06:59;20.89;67.82
70246;SHT30;57637;49.272;8.590;2022-10-23T12:14:37;20.79;68.57
70246;SHT30;57637;49.272;8.590;2022-10-23T12:22:37;20.54;69.33
70246;SHT30;57637;49.272;8.590;2022-10-23T12:25:16;20.64;69.72
70246;SHT30;57637;49.272;8.590;2022-10-23T12:33:33;20.92;68.96
70246;SHT30;57637;49.272;8.590;2022-10-23T12:36:15;20.99;68.43
70246;SHT30;57637;49.272;8.590;2022-10-23T12:38:46;21.18;68.08
70246;SHT30;57637;49.272;8.590;2022-10-23T12:41:19;21.20;67.86
70246;SHT30;57637;49.272;8.590;2022-10-23T12:43:58;21.27;67.99
70246;SHT30;57637;49.272;8.590;2022-10-23T12:46:35;21.10;68.14
70246;SHT30;57637;49.272;8.590;2022-10-23T12:49:11;21.22;68.02
70246;SHT30;57637;49.272;8.590;2022-10-23T12:51:41;21.45;68.24
70246;SHT30;57637;49.272;8.590;2022-10-23T12:54:17;21.50;67.77
70246;SHT30;57637;49.272;8.590;2022-10-23T12:56:44;21.84;67.16
70246;SHT30;57637;49.272;8.590;2022-10-23T12:59:15;21.91;67.10
70246;SHT30;57637;49.272;8.590;2022-10-23T13:01:43;22.05;66.20
70246;SHT30;57637;49.272;8.590;2022-10-23T13:06:49;21.93;66.71
70246;SHT30;57637;49.272;8.590;2022-10-23T13:09:49;22.10;65.85
70246;SHT30;57637;49.272;8.590;2022-10-23T13:12:14;21.94;65.71
70246;SHT30;57637;49.272;8.590;2022-10-23T13:17:34;22.02;65.47
70246;SHT30;57637;49.272;8.590;2022-10-23T13:22:41;22.17;65.29
70246;SHT30;57637;49.272;8.590;2022-10-23T13:28:30;21.93;65.89
70246;SHT30;57637;49.272;8.590;2022-10-23T13:33:48;21.74;66.35
70246;SHT30;57637;49.272;8.590;2022-10-23T13:38:43;21.78;65.99
70246;SHT30;57637;49.272;8.590;2022-10-23T13:41:47;21.90;66.25
70246;SHT30;57637;49.272;8.590;2022-10-23T13:44:16;21.78;66.29
70246;SHT30;57637;49.272;8.590;2022-10-23T13:46:43;21.71;66.33
70246;SHT30;57637;49.272;8.590;2022-10-23T13:49:09;21.77;66.83
70246;SHT30;57637;49.272;8.590;2022-10-23T13:51:48;21.66;66.88
70246;SHT30;57637;49.272;8.590;2022-10-23T13:54:23;21.60;66.71
70246;SHT30;57637;49.272;8.590;2022-10-23T13:56:51;21.64;67.20
70246;SHT30;57637;49.272;8.590;2022-10-23T13:59:17;21.66;67.49
70246;SHT30;57637;49.272;8.590;2022-10-23T14:01:43;21.61;67.55
70246;SHT30;57637;49.272;8.590;2022-10-23T14:04:12;21.64;67.67
70246;SHT30;57637;49.272;8.590;2022-10-23T14:06:38;21.61;67.53
70246;SHT30;57637;49.272;8.590;2022-10-23T14:09:05;21.70;67.11
70246;SHT30;57637;49.272;8.590;2022-10-23T14:11:31;21.57;67.22
70246;SHT30;57637;49.272;8.590;2022-10-23T14:13:56;21.37;67.38
70246;SHT30;57637;49.272;8.590;2022-10-23T14:16:22;21.30;68.00
70246;SHT30;57637;49.272;8.590;2022-10-23T14:18:49;21.32;68.34
70246;SHT30;57637;49.272;8.590;2022-10-23T14:21:15;21.22;68.26
70246;SHT30;57637;49.272;8.590;2022-10-23T14:23:45;21.15;68.61
70246;SHT30;57637;49.272;8.590;2022-10-23T14:26:12;21.06;68.55
70246;SHT30;57637;49.272;8.590;2022-10-23T14:28:39;20.99;69.25
70246;SHT30;57637;49.272;8.590;2022-10-23T14:31:10;20.96;69.46
70246;SHT30;57637;49.272;8.590;2022-10-23T14:33:40;20.84;69.78
70246;SHT30;57637;49.272;8.590;2022-10-23T14:36:07;20.82;70.01
70246;SHT30;57637;49.272;8.590;2022-10-23T14:38:33;20.78;70.40
70246;SHT30;57637;49.272;8.590;2022-10-23T14:40:59;20.76;70.42
70246;SHT30;57637;49.272;8.590;2022-10-23T14:43:24;20.75;70.72
70246;SHT30;57637;49.272;8.590;2022-10-23T14:45:50;20.78;70.50
70246;SHT30;57637;49.272;8.590;2022-10-23T14:48:16;20.76;70.70
70246;SHT30;57637;49.272;8.590;2022-10-23T14:50:43;20.79;71.06
70246;SHT30;57637;49.272;8.590;2022-10-23T14:53:10;20.76;71.36
70246;SHT30;57637;49.272;8.590;2022-10-23T14:55:36;20.71;71.73
70246;SHT30;57637;49.272;8.590;2022-10-23T14:58:02;20.61;72.35
70246;SHT30;57637;49.272;8.590;2022-10-23T15:00:27;20.55;72.40
70246;SHT30;57637;49.272;8.590;2022-10-23T15:02:53;20.55;72.65
70246;SHT30;57637;49.272;8.590;2022-10-23T15:05:18;20.54;72.60
70246;SHT30;57637;49.272;8.590;2022-10-23T15:07:43;20.49;72.74
70246;SHT30;57637;49.272;8.590;2022-10-23T15:10:09;20.52;72.81
70246;SHT30;57637;49.272;8.590;2022-10-23T15:12:35;20.45;73.34
70246;SHT30;57637;49.272;8.590;2022-10-23T15:15:01;20.43;73.26
70246;SHT30;57637;49.272;8.590;2022-10-23T15:17:27;20.31;73.90
70246;SHT30;57637;49.272;8.590;2022-10-23T15:19:53;20.23;74.32
70246;SHT30;57637;49.272;8.590;2022-10-23T15:22:18;20.20;74.48
70246;SHT30;57637;49.272;8.590;2022-10-23T15:24:44;20.17;74.69
70246;SHT30;57637;49.272;8.590;2022-10-23T15:27:11;20.16;74.80
70246;SHT30;57637;49.272;8.590;2022-10-23T15:29:37;20.10;74.93
70246;SHT30;57637;49.272;8.590;2022-10-23T15:32:03;20.01;75.38
70246;SHT30;57637;49.272;8.590;2022-10-23T15:34:29;19.94;75.68
70246;SHT30;57637;49.272;8.590;2022-10-23T15:36:57;19.86;75.97
70246;SHT30;57637;49.272;8.590;2022-10-23T15:39:25;19.83;76.04
70246;SHT30;57637;49.272;8.590;2022-10-23T15:41:53;19.70;76.24
70246;SHT30;57637;49.272;8.590;2022-10-23T15:44:20;19.69;76.19
70246;SHT30;57637;49.272;8.590;2022-10-23T15:46:48;19.69;76.17
70246;SHT30;57637;49.272;8.590;2022-10-23T15:49:15;19.72;76.25
70246;SHT30;57637;49.272;8.590;2022-10-23T15:51:41;19.65;76.19
70246;SHT30;57637;49.272;8.590;2022-10-23T15:54:10;19.62;76.35
70246;SHT30;57637;49.272;8.590;2022-10-23T15:56:43;19.52;76.77
70246;SHT30;57637;49.272;8.590;2022-10-23T15:59:10;19.48;76.96
70246;SHT30;57637;49.272;8.590;2022-10-23T16:01:35;19.43;76.95
70246;SHT30;57637;49.272;8.590;2022-10-23T16:04:01;19.36;77.29
70246;SHT30;57637;49.272;8.590;2022-10-23T16:06:27;19.25;77.75
70246;SHT30;57637;49.272;8.590;2022-10-23T16:08:53;19.18;77.88
70246;SHT30;57637;49.272;8.590;2022-10-23T16:11:23;19.15;78.10
70246;SHT30;57637;49.272;8.590;2022-10-23T16:13:50;19.08;78.27
70246;SHT30;57637;49.272;8.590;2022-10-23T16:16:17;19.00;78.46
70246;SHT30;57637;49.272;8.590;2022-10-23T16:18:43;18.97;78.68
70246;SHT30;57637;49.272;8.590;2022-10-23T16:21:15;18.94;78.75
70246;SHT30;57637;49.272;8.590;2022-10-23T16:23:45;18.87;78.92
70246;SHT30;57637;49.272;8.590;2022-10-23T16:26:11;18.80;79.10
70246;SHT30;57637;49.272;8.590;2022-10-23T16:28:38;18.81;78.97
70246;SHT30;57637;49.272;8.590;2022-10-23T16:31:16;18.80;79.22
70246;SHT30;57637;49.272;8.590;2022-10-23T16:33:44;18.78;79.07
70246;SHT30;57637;49.272;8.590;2022-10-23T16:36:09;18.78;79.33
70246;SHT30;57637;49.272;8.590;2022-10-23T16:38:35;18.77;79.36
70246;SHT30;57637;49.272;8.590;2022-10-23T16:41:01;18.71;79.44
70246;SHT30;57637;49.272;8.590;2022-10-23T16:43:27;18.71;79.48
70246;SHT30;57637;49.272;8.590;2022-10-23T16:46:06;18.65;79.72
70246;SHT30;57637;49.272;8.590;2022-10-23T16:48:35;18.67;79.66
70246;SHT30;57637;49.272;8.590;2022-10-23T16:51:07;18.64;79.72
70246;SHT30;57637;49.272;8.590;2022-10-23T16:53:34;18.61;79.52
70246;SHT30;57637;49.272;8.590;2022-10-23T16:56:02;18.64;79.56
70246;SHT30;57637;49.272;8.590;2022-10-23T16:58:28;18.65;79.52
70246;SHT30;57637;49.272;8.590;2022-10-23T17:00:57;18.65;79.51
70246;SHT30;57637;49.272;8.590;2022-10-23T17:03:25;18.65;79.55
70246;SHT30;57637;49.272;8.590;2022-10-23T17:05:51;18.65;79.71
70246;SHT30;57637;49.272;8.590;2022-10-23T17:08:19;18.64;79.79
70246;SHT30;57637;49.272;8.590;2022-10-23T17:13:56;18.64;79.94
70246;SHT30;57637;49.272;8.590;2022-10-23T17:16:26;18.64;80.28
70246;SHT30;57637;49.272;8.590;2022-10-23T17:18:52;18.61;80.64
70246;SHT30;57637;49.272;8.590;2022-10-23T17:21:18;18.58;80.78
70246;SHT30;57637;49.272;8.590;2022-10-23T17:23:46;18.56;81.74
70246;SHT30;57637;49.272;8.590;2022-10-23T17:26:18;18.51;82.29
70246;SHT30;57637;49.272;8.590;2022-10-23T17:28:45;18.41;83.00
70246;SHT30;57637;49.272;8.590;2022-10-23T17:31:15;18.32;83.60
70246;SHT30;57637;49.272;8.590;2022-10-23T17:33:46;18.29;83.56
70246;SHT30;57637;49.272;8.590;2022-10-23T17:36:13;18.27;84.05
70246;SHT30;57637;49.272;8.590;2022-10-23T17:38:40;18.22;84.66
70246;SHT30;57637;49.272;8.590;2022-10-23T17:41:07;18.13;85.22
70246;SHT30;57637;49.272;8.590;2022-10-23T17:43:34;18.06;86.53
70246;SHT30;57637;49.272;8.590;2022-10-23T17:46:01;17.82;87.53
70246;SHT30;57637;49.272;8.590;2022-10-23T17:48:31;17.71;87.99
70246;SHT30;57637;49.272;8.590;2022-10-23T17:51:05;17.55;88.47
70246;SHT30;57637;49.272;8.590;2022-10-23T17:53:33;17.42;88.81
70246;SHT30;57637;49.272;8.590;2022-10-23T17:56:00;17.39;89.17
70246;SHT30;57637;49.272;8.590;2022-10-23T17:58:27;17.35;89.19
70246;SHT30;57637;49.272;8.590;2022-10-23T18:00:53;17.30;89.60
70246;SHT30;57637;49.272;8.590;2022-10-23T18:03:18;17.20;89.74
70246;SHT30;57637;49.272;8.590;2022-10-23T18:05:43;17.21;89.79
70246;SHT30;57637;49.272;8.590;2022-10-23T18:08:09;17.18;89.78
70246;SHT30;57637;49.272;8.590;2022-10-23T18:10:35;17.21;89.66
70246;SHT30;57637;49.272;8.590;2022-10-23T18:13:00;17.18;89.93
70246;SHT30;57637;49.272;8.590;2022-10-23T18:15:26;17.20;89.52
70246;SHT30;57637;49.272;8.590;2022-10-23T18:17:51;17.18;89.59
70246;SHT30;57637;49.272;8.590;2022-10-23T18:20:17;17.21;89.57
70246;SHT30;57637;49.272;8.590;2022-10-23T18:22:42;17.18;89.61
70246;SHT30;57637;49.272;8.590;2022-10-23T18:25:08;17.20;89.76
70246;SHT30;57637;49.272;8.590;2022-10-23T18:27:33;17.17;89.82